createdAt,value
2018-09-14T04:01:26.884Z,80.50
2018-09-14T04:03:55.033Z,80.40
2018-09-14T04:06:23.247Z,80.50
2018-09-14T04:08:51.328Z,80.50
2018-09-14T04:11:19.674Z,80.80
2018-09-14T04:13:47.746Z,81.00
2018-09-14T04:16:17.712Z,81.40
2018-09-14T04:18:51.002Z,81.30
2018-09-14T04:21:19.433Z,81.50
2018-09-14T04:23:48.036Z,82.00
2018-09-14T04:26:16.123Z,81.80
2018-09-14T04:28:44.231Z,81.30
2018-09-14T04:31:12.307Z,81.10
2018-09-14T04:33:40.404Z,81.10
2018-09-14T04:36:09.742Z,81.00
2018-09-14T04:38:38.828Z,81.80
2018-09-14T04:41:07.045Z,80.70
2018-09-14T04:43:35.496Z,81.10
2018-09-14T04:46:03.759Z,81.60
2018-09-14T04:48:31.983Z,81.90
2018-09-14T04:50:59.992Z,81.80
2018-09-14T04:53:28.408Z,81.70
2018-09-14T04:55:56.457Z,81.60
2018-09-14T04:58:24.511Z,81.60
2018-09-14T05:04:04.107Z,81.60
2018-09-14T05:06:32.214Z,81.80
2018-09-14T05:09:00.387Z,81.80
2018-09-14T05:11:29.123Z,81.60
2018-09-14T05:13:57.270Z,81.70
2018-09-14T05:16:26.395Z,82.30
2018-09-14T05:18:54.472Z,82.70
2018-09-14T05:21:25.910Z,82.80
2018-09-14T05:23:54.050Z,82.70
2018-09-14T05:26:22.056Z,82.70
2018-09-14T05:28:50.323Z,82.80
2018-09-14T05:31:19.535Z,82.90
2018-09-14T05:33:47.904Z,82.80
2018-09-14T05:36:15.987Z,82.70
2018-09-14T05:38:44.804Z,82.30
2018-09-14T05:41:12.879Z,81.90
2018-09-14T05:43:40.992Z,81.70
2018-09-14T05:46:10.388Z,81.60
2018-09-14T05:48:40.075Z,81.60
2018-09-14T05:51:10.057Z,81.30
2018-09-14T05:53:41.456Z,80.40
2018-09-14T05:56:09.700Z,79.90
2018-09-14T05:58:38.519Z,79.70
2018-09-14T06:01:06.914Z,79.70
2018-09-14T06:03:34.977Z,79.50
2018-09-14T06:06:03.197Z,79.80
2018-09-14T06:08:31.451Z,80.30
2018-09-14T06:11:01.369Z,80.80
2018-09-14T06:13:29.849Z,80.50
2018-09-14T06:15:58.912Z,79.30
2018-09-14T06:18:27.410Z,78.30
2018-09-14T06:20:55.967Z,77.50
2018-09-14T06:23:24.082Z,65.90
2018-09-14T06:25:52.164Z,58.10
2018-09-14T06:28:20.251Z,54.00
2018-09-14T06:30:49.672Z,49.50
2018-09-14T06:33:18.158Z,53.00
2018-09-14T06:35:46.495Z,55.40
2018-09-14T06:38:14.593Z,58.60
2018-09-14T06:40:42.771Z,62.10
2018-09-14T06:43:11.466Z,58.10
2018-09-14T06:45:39.584Z,57.90
2018-09-14T06:48:07.832Z,57.90
2018-09-14T06:50:35.946Z,53.90
2018-09-14T06:53:04.031Z,47.60
2018-09-14T06:55:32.103Z,48.40
2018-09-14T06:58:00.189Z,53.80
2018-09-14T07:00:29.303Z,59.70
2018-09-14T07:02:58.183Z,62.50
2018-09-14T07:05:26.383Z,64.30
2018-09-14T07:07:54.471Z,66.40
2018-09-14T07:10:28.023Z,67.00
2018-09-14T07:12:56.384Z,64.80
2018-09-14T07:15:25.055Z,65.30
2018-09-14T07:17:53.156Z,63.10
2018-09-14T07:20:21.235Z,62.90
2018-09-14T07:22:49.311Z,63.30
2018-09-14T07:25:17.835Z,63.20
2018-09-14T07:27:45.992Z,63.90
2018-09-14T07:30:14.053Z,64.30
2018-09-14T07:32:42.157Z,66.30
2018-09-14T07:35:10.231Z,67.60
2018-09-14T07:37:38.897Z,67.90
2018-09-14T07:40:07.151Z,68.60
2018-09-14T07:42:35.327Z,69.80
2018-09-14T07:45:03.375Z,68.30
2018-09-14T07:47:31.471Z,69.00
2018-09-14T07:49:59.599Z,69.30
2018-09-14T07:52:28.517Z,67.30
2018-09-14T07:54:56.620Z,68.50
2018-09-14T07:57:24.707Z,68.10
2018-09-14T07:59:52.781Z,67.40
2018-09-14T08:02:20.911Z,66.90
2018-09-14T08:04:51.009Z,66.80
2018-09-14T08:07:19.167Z,66.90
2018-09-14T08:09:49.063Z,66.20
2018-09-14T08:12:17.554Z,62.90
2018-09-14T08:14:45.661Z,61.20
2018-09-14T08:17:14.672Z,60.60
2018-09-14T08:19:42.780Z,60.30
2018-09-14T08:22:11.027Z,58.30
2018-09-14T08:24:39.915Z,57.30
2018-09-14T08:27:09.319Z,57.60
2018-09-14T08:29:37.593Z,58.30
2018-09-14T08:32:05.783Z,59.40
2018-09-14T08:34:34.067Z,59.10
2018-09-14T08:37:02.138Z,57.00
2018-09-14T08:39:33.428Z,54.60
2018-09-14T08:42:01.501Z,54.10
2018-09-14T08:44:30.223Z,54.00
2018-09-14T08:46:58.705Z,52.60
2018-09-14T08:49:27.221Z,49.20
2018-09-14T08:51:55.275Z,46.10
2018-09-14T08:54:23.360Z,46.00
2018-09-14T08:56:56.467Z,47.20
2018-09-14T08:59:25.048Z,47.90
2018-09-14T09:01:53.120Z,48.90
2018-09-14T09:04:21.235Z,53.10
2018-09-14T09:06:49.651Z,51.50
2018-09-14T09:09:18.099Z,50.60
2018-09-14T09:11:46.177Z,51.10
2018-09-14T09:14:14.248Z,51.30
2018-09-14T09:16:42.325Z,53.00
2018-09-14T09:19:10.499Z,53.80
2018-09-14T09:21:39.183Z,54.80
2018-09-14T09:27:05.939Z,56.30
2018-09-14T09:29:34.091Z,54.30
2018-09-14T09:32:10.307Z,54.50
2018-09-14T09:34:38.768Z,53.10
2018-09-14T09:37:07.158Z,52.10
2018-09-14T09:39:35.340Z,51.10
2018-09-14T09:42:03.443Z,50.80
2018-09-14T09:44:31.571Z,51.60
2018-09-14T09:46:59.724Z,51.60
2018-09-14T09:49:32.398Z,50.20
2018-09-14T09:52:00.682Z,43.30
2018-09-14T09:54:34.786Z,41.10
2018-09-14T09:57:02.891Z,43.10
2018-09-14T09:59:32.441Z,45.60
2018-09-14T10:05:24.614Z,46.50
2018-09-14T10:07:53.576Z,47.30
2018-09-14T10:10:21.716Z,44.60
